createdAt,value
2018-06-29T00:02:49.013Z,99037.47
2018-06-29T00:07:32.756Z,99033.08
2018-06-29T00:12:16.346Z,99026.81
2018-06-29T00:17:01.126Z,99018.52
2018-06-29T00:21:44.740Z,99013.43
2018-06-29T00:26:28.347Z,99008.03
2018-06-29T00:31:12.052Z,99015.31
2018-06-29T00:35:55.599Z,99004.93
2018-06-29T00:40:40.816Z,99004.89
2018-06-29T00:45:24.348Z,99003.85
2018-06-29T00:50:11.213Z,99006.29
2018-06-29T00:54:54.832Z,99016.08
2018-06-29T00:59:38.545Z,98988.92
2018-06-29T01:04:22.069Z,98977.30
2018-06-29T01:09:12.200Z,98971.25
2018-06-29T01:13:55.808Z,98962.37
2018-06-29T01:18:40.561Z,98961.36
2018-06-29T01:23:24.119Z,98958.78
2018-06-29T01:28:08.720Z,98966.28
2018-06-29T01:32:52.209Z,98969.80
2018-06-29T01:37:36.939Z,98969.09
2018-06-29T01:42:20.495Z,98982.84
2018-06-29T01:47:07.392Z,98987.45
2018-06-29T01:51:50.878Z,98968.22
2018-06-29T01:56:35.358Z,98969.69
2018-06-29T02:01:18.873Z,98962.37
2018-06-29T02:06:02.413Z,98956.59
2018-06-29T02:10:46.169Z,98952.55
2018-06-29T02:15:29.592Z,98960.78
2018-06-29T02:20:14.187Z,98947.03
2018-06-29T02:24:57.757Z,98970.92
2018-06-29T02:29:41.126Z,98959.26
2018-06-29T02:34:24.561Z,98962.20
2018-06-29T02:39:13.600Z,98952.03
2018-06-29T02:43:56.997Z,98956.20
2018-06-29T02:48:40.747Z,98961.21
2018-06-29T02:53:24.322Z,98971.42
2018-06-29T02:58:08.062Z,98980.34
2018-06-29T03:02:51.605Z,98978.72
2018-06-29T03:07:36.281Z,98962.13
2018-06-29T03:12:19.784Z,98953.19
2018-06-29T03:17:03.222Z,98957.36
2018-06-29T03:21:46.722Z,98950.65
2018-06-29T03:26:31.664Z,98945.32
2018-06-29T03:31:14.943Z,98949.59
2018-06-29T03:35:58.526Z,98948.50
2018-06-29T03:40:43.213Z,98957.42
2018-06-29T03:45:26.677Z,98953.80
2018-06-29T03:50:11.154Z,98935.78
2018-06-29T03:54:54.387Z,98938.70
2018-06-29T03:59:39.022Z,98930.09
2018-06-29T04:04:22.587Z,98938.14
2018-06-29T04:09:11.416Z,98932.61
2018-06-29T04:13:54.936Z,98927.06
2018-06-29T04:18:39.572Z,98928.81
2018-06-29T04:23:23.046Z,98940.02
2018-06-29T04:28:10.253Z,98945.21
2018-06-29T04:32:53.875Z,98946.83
2018-06-29T04:37:40.433Z,98954.58
2018-06-29T04:42:23.945Z,98962.59
2018-06-29T04:47:07.573Z,98961.40
2018-06-29T04:51:51.020Z,98959.23
2018-06-29T04:56:35.567Z,98947.73
2018-06-29T05:01:19.161Z,98943.69
2018-06-29T05:06:02.644Z,98951.64
2018-06-29T05:10:46.192Z,98955.36
2018-06-29T05:15:29.668Z,98950.55
2018-06-29T05:20:16.368Z,98950.73
2018-06-29T05:24:59.890Z,98948.86
2018-06-29T05:29:46.592Z,98946.42
2018-06-29T05:34:30.228Z,98939.84
2018-06-29T05:39:13.945Z,98937.55
2018-06-29T05:43:57.405Z,98934.66
2018-06-29T05:48:41.246Z,98942.17
2018-06-29T05:53:24.833Z,98949.19
2018-06-29T05:58:08.600Z,98947.73
2018-06-29T06:02:52.168Z,98947.05
2018-06-29T06:07:39.897Z,98943.58
2018-06-29T06:12:23.278Z,98940.39
2018-06-29T06:17:10.615Z,98940.48
2018-06-29T06:21:54.329Z,98943.98
2018-06-29T06:26:42.950Z,98935.56
2018-06-29T06:31:27.414Z,98932.36
2018-06-29T06:36:11.094Z,98942.45
2018-06-29T06:40:54.632Z,98942.51
2018-06-29T06:45:38.144Z,98924.95
2018-06-29T06:50:21.862Z,98935.87
2018-06-29T06:55:05.479Z,98911.64
2018-06-29T06:59:50.090Z,98910.97
2018-06-29T07:04:33.750Z,98928.67
2018-06-29T07:09:21.190Z,98916.30
2018-06-29T07:14:04.728Z,98915.38
2018-06-29T07:18:48.266Z,98911.77
2018-06-29T07:23:31.880Z,98907.64
2018-06-29T07:28:15.546Z,98904.44
2018-06-29T07:32:59.061Z,98902.41
2018-06-29T07:37:45.424Z,98901.36
2018-06-29T07:42:28.929Z,98905.73
2018-06-29T07:47:12.658Z,98897.47
2018-06-29T07:51:56.157Z,98901.27
2018-06-29T07:56:39.887Z,98905.89
2018-06-29T08:01:23.382Z,98899.91
2018-06-29T08:06:10.026Z,98902.31
2018-06-29T08:10:53.354Z,98896.54
2018-06-29T08:15:40.145Z,98905.03
2018-06-29T08:20:23.569Z,98901.13
2018-06-29T08:25:16.540Z,98893.11
2018-06-29T08:30:03.165Z,98889.27
2018-06-29T08:34:47.761Z,98894.67
2018-06-29T08:39:34.849Z,98901.63
2018-06-29T08:44:18.435Z,98896.85
2018-06-29T08:49:05.206Z,98891.45
2018-06-29T08:53:48.526Z,98887.48
2018-06-29T08:58:31.985Z,98884.89
2018-06-29T09:03:15.428Z,98885.44
2018-06-29T09:08:00.072Z,98892.07
2018-06-29T09:12:43.442Z,98894.63
2018-06-29T09:17:26.996Z,98890.86
2018-06-29T09:22:10.472Z,98885.22
2018-06-29T09:26:54.191Z,98883.84
2018-06-29T09:31:37.909Z,98882.48
2018-06-29T09:36:21.471Z,98883.52
2018-06-29T09:41:04.893Z,98882.11
2018-06-29T09:45:53.132Z,98883.11
2018-06-29T09:50:36.469Z,98880.45
2018-06-29T09:55:20.778Z,98886.09
2018-06-29T10:00:05.972Z,98873.75
2018-06-29T10:04:49.412Z,98876.39
2018-06-29T10:09:32.912Z,98868.17
2018-06-29T10:14:16.361Z,98874.61
2018-06-29T10:19:00.704Z,98871.36
2018-06-29T10:23:44.194Z,98863.69
2018-06-29T10:28:27.942Z,98852.22
2018-06-29T10:33:11.398Z,98848.19
2018-06-29T10:37:58.858Z,98849.03
2018-06-29T10:42:42.370Z,98851.16
2018-06-29T10:47:27.616Z,98843.20
2018-06-29T10:52:11.037Z,98840.02
2018-06-29T10:56:54.532Z,98837.66
2018-06-29T11:01:37.862Z,98829.14
2018-06-29T11:06:21.336Z,98815.50
2018-06-29T11:11:04.706Z,98808.30
2018-06-29T11:15:48.365Z,98807.70
2018-06-29T11:20:31.883Z,98798.09
2018-06-29T11:25:16.462Z,98790.97
2018-06-29T11:29:59.920Z,98796.52
2018-06-29T11:34:43.445Z,98791.64
2018-06-29T11:39:30.148Z,98792.91
2018-06-29T11:44:13.779Z,98783.12
2018-06-29T11:49:00.509Z,98779.11
2018-06-29T11:53:43.957Z,98775.06
2018-06-29T11:58:27.637Z,98776.67
2018-06-29T12:03:11.217Z,98775.78
2018-06-29T12:07:55.761Z,98770.22
2018-06-29T12:12:39.308Z,98775.71
2018-06-29T12:17:26.441Z,98801.61
2018-06-29T12:22:09.859Z,98792.92
2018-06-29T12:26:57.238Z,98784.98
2018-06-29T12:31:40.750Z,98778.09
2018-06-29T12:36:29.800Z,98785.21
2018-06-29T12:41:13.318Z,98781.83
2018-06-29T12:46:05.322Z,98775.98
2018-06-29T12:50:48.842Z,98778.05
2018-06-29T12:55:33.330Z,98770.55
2018-06-29T13:00:16.889Z,98759.70
2018-06-29T13:05:01.503Z,98755.78
2018-06-29T13:09:45.129Z,98740.89
2018-06-29T13:14:28.725Z,98740.61
2018-06-29T13:19:15.693Z,98739.45
2018-06-29T13:23:59.217Z,98744.34
2018-06-29T13:28:42.635Z,98749.50
2018-06-29T13:33:25.981Z,98750.13
2018-06-29T13:38:09.674Z,98757.48
2018-06-29T13:42:53.193Z,98767.02
2018-06-29T13:47:37.754Z,98764.78
2018-06-29T13:52:21.393Z,98762.34
2018-06-29T13:57:10.101Z,98765.09
2018-06-29T14:01:54.877Z,98756.59
2018-06-29T14:06:39.308Z,98757.85
2018-06-29T14:11:24.126Z,98754.31
2018-06-29T14:16:08.598Z,98753.69
2018-06-29T14:20:51.901Z,98756.02
2018-06-29T14:25:39.284Z,98743.63
2018-06-29T14:30:22.864Z,98739.31
2018-06-29T14:35:12.188Z,98742.48
2018-06-29T14:39:56.896Z,98765.81
2018-06-29T14:44:42.723Z,98773.54
2018-06-29T14:49:26.278Z,98772.20
2018-06-29T14:54:09.854Z,98776.66
2018-06-29T14:58:57.825Z,98780.23
2018-06-29T15:03:41.442Z,98784.53
2018-06-29T15:08:25.188Z,98793.05
2018-06-29T15:13:11.885Z,98801.27
2018-06-29T15:17:57.505Z,98795.67
2018-06-29T15:22:40.835Z,98782.88
2018-06-29T15:27:28.835Z,98775.33
2018-06-29T15:32:13.598Z,98770.52
2018-06-29T15:37:00.308Z,98768.58
2018-06-29T15:41:43.772Z,98773.01
2018-06-29T15:46:31.458Z,98765.44
2018-06-29T15:51:15.034Z,98755.52
2018-06-29T15:56:03.191Z,98755.66
2018-06-29T16:00:46.786Z,98767.92
2018-06-29T16:05:31.471Z,98762.17
2018-06-29T16:10:15.092Z,98760.23
2018-06-29T16:14:59.621Z,98763.05
2018-06-29T16:19:43.638Z,98764.98
2018-06-29T16:24:30.520Z,98761.22
2018-06-29T16:29:14.002Z,98765.22
2018-06-29T16:33:57.492Z,98769.95
2018-06-29T16:38:41.243Z,98768.06
2018-06-29T16:43:24.850Z,98777.84
2018-06-29T16:48:09.550Z,98783.39
2018-06-29T16:52:53.021Z,98793.61
2018-06-29T16:57:36.849Z,98800.88
2018-06-29T17:02:20.443Z,98810.94
2018-06-29T17:07:04.990Z,98816.38
2018-06-29T17:11:48.308Z,98815.06
2018-06-29T17:16:32.019Z,98815.72
2018-06-29T17:21:15.595Z,98819.21
2018-06-29T17:26:06.319Z,98817.81
2018-06-29T17:31:05.467Z,98815.52
2018-06-29T17:36:07.306Z,98815.77
2018-06-29T17:40:53.613Z,98811.73
2018-06-29T17:45:42.451Z,98805.39
2018-06-29T17:50:25.779Z,98793.97
2018-06-29T17:55:10.404Z,98801.39
2018-06-29T17:59:53.945Z,98798.13
2018-06-29T18:04:38.350Z,98800.28
2018-06-29T18:09:21.891Z,98802.35
2018-06-29T18:14:06.738Z,98801.14
2018-06-29T18:18:50.193Z,98804.25
2018-06-29T18:23:33.838Z,98817.83
2018-06-29T18:28:17.445Z,98820.31
2018-06-29T18:33:00.978Z,98843.51
2018-06-29T18:37:47.680Z,98846.66
2018-06-29T18:42:31.022Z,98839.34
2018-06-29T18:48:02.860Z,98840.97
2018-06-29T18:52:49.340Z,98846.16
2018-06-29T18:57:33.099Z,98838.87
2018-06-29T19:02:16.546Z,98844.45
2018-06-29T19:07:03.557Z,98845.44
2018-06-29T19:11:47.126Z,98841.28
2018-06-29T19:16:34.096Z,98840.58
2018-06-29T19:21:17.954Z,98835.98
2018-06-29T19:26:02.567Z,98836.67
2018-06-29T19:30:46.301Z,98841.02
2018-06-29T19:35:32.770Z,98846.02
2018-06-29T19:40:16.095Z,98854.84
2018-06-29T19:45:00.848Z,98847.89
2018-06-29T19:49:44.364Z,98875.44
2018-06-29T19:54:27.902Z,98869.83
2018-06-29T19:59:11.499Z,98865.63
2018-06-29T20:03:56.222Z,98859.48
2018-06-29T20:08:39.716Z,98873.83
2018-06-29T20:13:23.238Z,98863.63
2018-06-29T20:18:07.921Z,98856.16
2018-06-29T20:22:51.526Z,98833.84
2018-06-29T20:27:35.918Z,98840.23
2018-06-29T20:32:19.531Z,98834.37
2018-06-29T20:37:06.059Z,98832.97
2018-06-29T20:41:49.665Z,98839.33
2018-06-29T20:46:33.456Z,98837.42
2018-06-29T20:51:16.834Z,98843.93
2018-06-29T20:56:00.546Z,98838.94
2018-06-29T21:00:44.013Z,98828.72
2018-06-29T21:05:27.461Z,98852.19
2018-06-29T21:10:10.939Z,98844.02
2018-06-29T21:14:55.620Z,98843.94
2018-06-29T21:19:39.176Z,98841.03
2018-06-29T21:24:26.173Z,98840.71
2018-06-29T21:29:09.647Z,98849.45
2018-06-29T21:33:54.443Z,98842.25
2018-06-29T21:38:38.116Z,98849.46
2018-06-29T21:43:21.717Z,98851.59
2018-06-29T21:48:06.070Z,98849.86
2018-06-29T21:52:49.701Z,98859.96
2018-06-29T21:57:33.353Z,98851.60
2018-06-29T22:02:16.817Z,98853.67
2018-06-29T22:07:00.446Z,98838.25
2018-06-29T22:11:43.877Z,98836.37
2018-06-29T22:16:28.509Z,98846.34
2018-06-29T22:21:12.078Z,98846.95
2018-06-29T22:25:59.333Z,98841.19
2018-06-29T22:30:42.809Z,98839.17
2018-06-29T22:35:30.221Z,98834.09
2018-06-29T22:40:13.829Z,98836.23
2018-06-29T22:44:58.570Z,98826.22
2018-06-29T22:49:42.150Z,98833.63
2018-06-29T22:54:26.873Z,98836.31
2018-06-29T22:59:10.454Z,98839.00
2018-06-29T23:03:57.222Z,98838.95
2018-06-29T23:08:40.708Z,98836.61
2018-06-29T23:13:24.565Z,98822.50
2018-06-29T23:18:08.164Z,98823.31
2018-06-29T23:22:51.792Z,98816.73
2018-06-29T23:27:35.476Z,98809.62
2018-06-29T23:32:19.122Z,98811.30
2018-06-29T23:37:03.769Z,98816.33
2018-06-29T23:41:47.318Z,98811.00
2018-06-29T23:46:31.906Z,98810.70
2018-06-29T23:51:15.653Z,98815.23
2018-06-29T23:56:02.182Z,98800.90
